Time;durP1;ratioP1;P1;durP2;ratioP2;P2;SDS_P1;SDS_P2;PMS_P1;PMS_P2;Temp;Humidity;BMP_temperature;BMP_pressure;BME280_temperature;BME280_humidity;BME280_pressure;Samples;Min_cycle;Max_cycle;Signal;HPM_P1;HPM_P2
2021/10/19 00:02:13;;;;;;;27.65;19.23;;;;;;;;;;5050577;28;20077;-48
2021/10/19 00:04:40;;;;;;;28.33;20.38;;;;;;;;;;5054071;28;20048;-48
2021/10/19 00:07:07;;;;;;;26.98;19.20;;;;;;;;;;5049700;28;20049;-47
2021/10/19 00:09:34;;;;;;;24.77;17.88;;;;;;;;;;5045321;28;20091;-51
2021/10/19 00:12:01;;;;;;;26.63;19.05;;;;;;;;;;5049738;28;20123;-49
2021/10/19 00:14:28;;;;;;;26.15;19.05;;;;;;;;;;5053977;28;20045;-49
2021/10/19 00:16:54;;;;;;;26.25;18.77;;;;;;;;;;5047111;28;20041;-49
2021/10/19 00:19:21;;;;;;;28.70;20.02;;;;;;;;;;5034092;28;20132;-51
2021/10/19 00:21:48;;;;;;;28.80;20.25;;;;;;;;;;5045673;28;20508;-48
2021/10/19 00:24:15;;;;;;;27.58;19.30;;;;;;;;;;5053250;28;20064;-50
2021/10/19 00:26:41;;;;;;;31.48;19.40;;;;;;;;;;5045702;28;20133;-49
2021/10/19 00:29:08;;;;;;;28.27;19.33;;;;;;;;;;5052571;28;20055;-48
2021/10/19 00:31:35;;;;;;;30.00;19.65;;;;;;;;;;5051317;28;20079;-51
2021/10/19 00:34:02;;;;;;;29.23;19.40;;;;;;;;;;5052508;28;20049;-47
2021/10/19 00:36:29;;;;;;;30.13;20.30;;;;;;;;;;5052547;28;20156;-48
2021/10/19 00:38:55;;;;;;;27.30;19.45;;;;;;;;;;5043144;28;20037;-51
2021/10/19 00:41:23;;;;;;;28.10;19.67;;;;;;;;;;5052574;28;20454;-48
2021/10/19 00:43:52;;;;;;;29.42;19.60;;;;;;;;;;5052419;28;20346;-51
2021/10/19 00:46:18;;;;;;;30.83;20.48;;;;;;;;;;5050157;28;20053;-48
2021/10/19 00:48:46;;;;;;;30.35;19.80;;;;;;;;;;5054072;28;20037;-49
2021/10/19 00:51:15;;;;;;;28.92;20.17;;;;;;;;;;5061063;28;20391;-49
2021/10/19 00:53:42;;;;;;;32.55;19.55;;;;;;;;;;5062744;28;20044;-50
2021/10/19 00:56:09;;;;;;;30.35;20.40;;;;;;;;;;5038975;28;20041;-48
2021/10/19 00:58:37;;;;;;;31.83;19.33;;;;;;;;;;5052526;28;20037;-50
2021/10/19 01:01:04;;;;;;;30.42;19.02;;;;;;;;;;5047482;28;20127;-50
2021/10/19 01:03:31;;;;;;;30.40;20.35;;;;;;;;;;5051231;28;20033;-50
2021/10/19 01:05:59;;;;;;;28.70;19.42;;;;;;;;;;5051843;28;20053;-47
2021/10/19 01:08:26;;;;;;;28.52;19.10;;;;;;;;;;5051485;28;20045;-50
2021/10/19 01:10:53;;;;;;;29.80;20.52;;;;;;;;;;5069116;28;20041;-50
2021/10/19 01:13:20;;;;;;;28.50;19.10;;;;;;;;;;5055922;28;20128;-49
2021/10/19 01:15:47;;;;;;;30.30;19.45;;;;;;;;;;5053107;28;20037;-48
2021/10/19 01:18:16;;;;;;;28.85;19.45;;;;;;;;;;5047273;28;20052;-49
2021/10/19 01:20:44;;;;;;;27.67;19.15;;;;;;;;;;5052160;28;20040;-50
2021/10/19 01:23:11;;;;;;;29.48;19.13;;;;;;;;;;5051077;28;20051;-47
2021/10/19 01:25:37;;;;;;;28.38;18.88;;;;;;;;;;5050034;28;20052;-47
2021/10/19 01:28:06;;;;;;;27.60;18.55;;;;;;;;;;5050392;28;20136;-47
2021/10/19 01:30:33;;;;;;;27.88;17.65;;;;;;;;;;5048391;28;20053;-48
2021/10/19 01:32:59;;;;;;;30.58;19.23;;;;;;;;;;5050797;28;20048;-52
2021/10/19 01:35:33;;;;;;;29.13;20.15;;;;;;;;;;5031512;28;20487;-46
2021/10/19 01:38:00;;;;;;;26.83;17.15;;;;;;;;;;5045788;28;20041;-48
2021/10/19 01:40:27;;;;;;;26.90;16.33;;;;;;;;;;5035716;28;20107;-51
2021/10/19 01:42:54;;;;;;;24.48;16.58;;;;;;;;;;5044543;28;20041;-48
2021/10/19 01:45:21;;;;;;;24.75;15.80;;;;;;;;;;5051529;28;20055;-52
2021/10/19 01:47:47;;;;;;;21.00;14.30;;;;;;;;;;5049645;28;20053;-53
2021/10/19 01:50:15;;;;;;;22.33;14.02;;;;;;;;;;5048983;28;20064;-51
2021/10/19 01:52:42;;;;;;;22.33;14.05;;;;;;;;;;5051146;28;20048;-49
2021/10/19 01:55:09;;;;;;;20.30;13.95;;;;;;;;;;5050792;28;20143;-47
2021/10/19 01:57:36;;;;;;;18.88;13.93;;;;;;;;;;5049569;28;20044;-49
2021/10/19 02:00:07;;;;;;;20.10;14.38;;;;;;;;;;5048038;28;20041;-49
2021/10/19 02:02:40;;;;;;;16.23;12.10;;;;;;;;;;5051020;28;20068;-51
2021/10/19 02:05:08;;;;;;;17.70;12.93;;;;;;;;;;5047323;28;20077;-52
2021/10/19 02:07:35;;;;;;;17.25;12.25;;;;;;;;;;5039116;28;20401;-49
2021/10/19 02:10:03;;;;;;;17.95;12.18;;;;;;;;;;5048527;28;20050;-48
2021/10/19 02:12:29;;;;;;;15.82;11.40;;;;;;;;;;5049558;28;20041;-49
2021/10/19 02:14:56;;;;;;;19.48;12.05;;;;;;;;;;5051317;28;20043;-48
2021/10/19 02:17:23;;;;;;;17.77;11.90;;;;;;;;;;5040191;28;20449;-49
2021/10/19 02:19:50;;;;;;;15.05;11.02;;;;;;;;;;5033819;28;20041;-48
2021/10/19 02:22:17;;;;;;;19.63;11.90;;;;;;;;;;5050875;28;20041;-48
2021/10/19 02:24:43;;;;;;;17.13;12.02;;;;;;;;;;5051269;28;20051;-48
2021/10/19 02:27:10;;;;;;;16.10;11.88;;;;;;;;;;5050423;28;20047;-49
2021/10/19 02:29:37;;;;;;;16.60;11.80;;;;;;;;;;5047735;28;20151;-49
2021/10/19 02:32:04;;;;;;;14.98;11.00;;;;;;;;;;5050680;28;20048;-48
2021/10/19 02:34:30;;;;;;;15.63;11.27;;;;;;;;;;5051095;28;20502;-49
2021/10/19 02:36:57;;;;;;;16.13;10.75;;;;;;;;;;5050659;28;20041;-49
2021/10/19 02:39:24;;;;;;;16.08;11.18;;;;;;;;;;5032458;28;20042;-51
2021/10/19 02:41:51;;;;;;;14.77;10.35;;;;;;;;;;5048764;28;20060;-48
2021/10/19 02:44:17;;;;;;;15.82;10.80;;;;;;;;;;5051170;28;20536;-49
2021/10/19 02:46:44;;;;;;;16.05;11.35;;;;;;;;;;5047825;28;20049;-51
2021/10/19 02:49:11;;;;;;;17.05;11.27;;;;;;;;;;5051454;28;20048;-50
2021/10/19 02:51:38;;;;;;;14.55;11.50;;;;;;;;;;5050220;28;20867;-48
2021/10/19 02:54:05;;;;;;;17.05;11.88;;;;;;;;;;5050216;28;20045;-49
2021/10/19 02:56:31;;;;;;;16.23;11.07;;;;;;;;;;5039097;28;20045;-48
2021/10/19 02:58:58;;;;;;;14.25;10.40;;;;;;;;;;5051467;28;20508;-49
2021/10/19 03:01:25;;;;;;;16.52;11.23;;;;;;;;;;5045717;28;20037;-50
2021/10/19 03:03:52;;;;;;;17.50;10.52;;;;;;;;;;5050783;28;20041;-49
2021/10/19 03:06:19;;;;;;;14.90;10.70;;;;;;;;;;5050459;28;20192;-51
2021/10/19 03:08:45;;;;;;;17.30;10.70;;;;;;;;;;5050763;28;20120;-50
2021/10/19 03:11:12;;;;;;;14.85;10.13;;;;;;;;;;5044415;28;20041;-48
2021/10/19 03:13:39;;;;;;;16.83;11.27;;;;;;;;;;5050295;28;20033;-51
2021/10/19 03:16:14;;;;;;;17.35;11.57;;;;;;;;;;5050487;28;20045;-48
2021/10/19 03:18:42;;;;;;;18.00;12.65;;;;;;;;;;5048269;28;20045;-50
2021/10/19 03:21:08;;;;;;;14.55;10.20;;;;;;;;;;5046288;28;20156;-50
2021/10/19 03:23:35;;;;;;;15.98;11.05;;;;;;;;;;5049917;28;20534;-47
2021/10/19 03:26:03;;;;;;;16.17;10.80;;;;;;;;;;5050949;28;20099;-49
2021/10/19 03:28:30;;;;;;;16.42;10.45;;;;;;;;;;5048848;28;20465;-51
2021/10/19 03:30:57;;;;;;;16.40;9.88;;;;;;;;;;5049270;28;20076;-49
2021/10/19 03:33:24;;;;;;;14.13;10.38;;;;;;;;;;5049668;28;20047;-50
2021/10/19 03:35:52;;;;;;;15.13;10.35;;;;;;;;;;5051074;28;20064;-52
2021/10/19 03:38:19;;;;;;;15.60;9.95;;;;;;;;;;5052541;28;20484;-50
2021/10/19 03:40:46;;;;;;;14.52;10.65;;;;;;;;;;5048081;28;20513;-49
2021/10/19 03:43:12;;;;;;;14.18;10.23;;;;;;;;;;5053230;28;20053;-49
2021/10/19 03:45:39;;;;;;;16.77;10.30;;;;;;;;;;5054750;28;20045;-49
2021/10/19 03:48:06;;;;;;;13.57;9.27;;;;;;;;;;5052068;28;20045;-49
2021/10/19 03:50:33;;;;;;;14.13;10.15;;;;;;;;;;5044065;28;20064;-50
2021/10/19 03:53:00;;;;;;;14.38;10.38;;;;;;;;;;5053389;28;20048;-48
2021/10/19 03:55:27;;;;;;;15.15;10.10;;;;;;;;;;5054294;28;20608;-47
2021/10/19 03:57:53;;;;;;;15.25;9.95;;;;;;;;;;5046423;28;20041;-52
2021/10/19 04:00:20;;;;;;;12.45;9.00;;;;;;;;;;5040821;28;20421;-50
2021/10/19 04:02:47;;;;;;;12.88;9.02;;;;;;;;;;5045281;28;20069;-53
2021/10/19 04:05:14;;;;;;;14.95;9.27;;;;;;;;;;5053680;28;20128;-48
2021/10/19 04:07:45;;;;;;;13.77;8.57;;;;;;;;;;5052855;28;20098;-48
2021/10/19 04:10:14;;;;;;;11.35;8.30;;;;;;;;;;5053962;28;20102;-50
2021/10/19 04:12:40;;;;;;;12.75;8.45;;;;;;;;;;5051306;28;20120;-51
2021/10/19 04:15:07;;;;;;;13.57;9.35;;;;;;;;;;5052453;28;20033;-49
2021/10/19 04:17:34;;;;;;;12.32;7.95;;;;;;;;;;5047938;28;20041;-52
2021/10/19 04:20:01;;;;;;;11.73;7.25;;;;;;;;;;5053219;28;20037;-51
2021/10/19 04:22:28;;;;;;;10.93;7.88;;;;;;;;;;5054409;28;20064;-52
2021/10/19 04:24:55;;;;;;;10.27;7.07;;;;;;;;;;5045776;28;20045;-49
2021/10/19 04:27:22;;;;;;;11.43;8.43;;;;;;;;;;5053025;28;20429;-48
2021/10/19 04:29:48;;;;;;;10.88;7.50;;;;;;;;;;5048073;28;20053;-48
2021/10/19 04:32:15;;;;;;;11.25;7.93;;;;;;;;;;5053328;28;20069;-48
2021/10/19 04:34:42;;;;;;;9.65;7.05;;;;;;;;;;5051841;28;20037;-50
2021/10/19 04:37:09;;;;;;;8.88;6.80;;;;;;;;;;5049721;28;20117;-48
2021/10/19 04:39:35;;;;;;;8.25;5.82;;;;;;;;;;5047519;28;20120;-48
2021/10/19 04:42:02;;;;;;;9.82;6.78;;;;;;;;;;5052272;28;20045;-48
2021/10/19 04:44:30;;;;;;;9.25;5.68;;;;;;;;;;5052731;28;20049;-49
2021/10/19 04:46:57;;;;;;;12.75;6.90;;;;;;;;;;5050803;28;20205;-49
2021/10/19 04:49:24;;;;;;;10.80;7.13;;;;;;;;;;5052183;28;20127;-50
2021/10/19 04:51:51;;;;;;;10.43;7.35;;;;;;;;;;5046755;28;20558;-50
2021/10/19 04:54:18;;;;;;;10.38;7.18;;;;;;;;;;5049257;28;20033;-48
2021/10/19 04:56:44;;;;;;;12.32;7.82;;;;;;;;;;5048985;28;20417;-47
2021/10/19 04:59:12;;;;;;;10.60;7.03;;;;;;;;;;5051110;28;20040;-46
2021/10/19 05:01:39;;;;;;;9.68;6.72;;;;;;;;;;5046092;28;20488;-46
2021/10/19 05:04:07;;;;;;;10.02;7.03;;;;;;;;;;5047322;28;20491;-49
2021/10/19 05:06:33;;;;;;;11.60;8.52;;;;;;;;;;5043098;28;20041;-50
2021/10/19 05:09:00;;;;;;;14.13;8.30;;;;;;;;;;5048684;28;20144;-46
2021/10/19 05:11:27;;;;;;;12.77;7.93;;;;;;;;;;5048859;28;20048;-50
2021/10/19 05:13:54;;;;;;;12.98;7.60;;;;;;;;;;5035217;28;20041;-49
2021/10/19 05:16:20;;;;;;;14.80;7.95;;;;;;;;;;5050179;28;20116;-51
2021/10/19 05:18:47;;;;;;;11.23;7.43;;;;;;;;;;5044300;28;20778;-50
2021/10/19 05:21:14;;;;;;;11.52;7.35;;;;;;;;;;5053344;28;20048;-47
2021/10/19 05:23:41;;;;;;;11.38;7.88;;;;;;;;;;5051631;28;20064;-47
2021/10/19 05:26:09;;;;;;;14.40;8.10;;;;;;;;;;5052192;28;20051;-48
2021/10/19 05:28:36;;;;;;;15.07;8.45;;;;;;;;;;5038180;28;20052;-49
2021/10/19 05:31:03;;;;;;;15.85;9.10;;;;;;;;;;5043818;28;20094;-51
2021/10/19 05:33:30;;;;;;;14.52;9.20;;;;;;;;;;5052563;28;20626;-48
2021/10/19 05:35:57;;;;;;;12.85;8.65;;;;;;;;;;5051855;28;20044;-48
2021/10/19 05:38:24;;;;;;;12.38;8.70;;;;;;;;;;5050466;28;20387;-48
2021/10/19 05:40:50;;;;;;;14.60;8.98;;;;;;;;;;5046849;28;20051;-47
2021/10/19 05:43:17;;;;;;;13.35;8.57;;;;;;;;;;5051697;28;20076;-48
2021/10/19 05:45:44;;;;;;;10.93;7.47;;;;;;;;;;5051761;28;20074;-47
2021/10/19 05:48:11;;;;;;;13.70;8.18;;;;;;;;;;5046843;28;20045;-47
2021/10/19 05:50:38;;;;;;;12.27;7.43;;;;;;;;;;5050970;28;20124;-48
2021/10/19 05:53:05;;;;;;;10.02;7.20;;;;;;;;;;5052188;28;20044;-50
2021/10/19 05:55:31;;;;;;;10.20;7.63;;;;;;;;;;5046672;28;20133;-47
2021/10/19 05:57:59;;;;;;;11.20;6.88;;;;;;;;;;5049731;28;20453;-47
2021/10/19 06:00:46;;;;;;;12.20;7.57;;;;;;;;;;5047530;28;20033;-47
2021/10/19 06:03:13;;;;;;;11.73;7.15;;;;;;;;;;5051064;28;20047;-48
2021/10/19 06:05:41;;;;;;;12.10;8.60;;;;;;;;;;5051481;28;20041;-49
2021/10/19 06:08:07;;;;;;;13.80;8.05;;;;;;;;;;5040045;28;20132;-51
2021/10/19 06:10:35;;;;;;;13.63;8.45;;;;;;;;;;5049296;28;20399;-49
2021/10/19 06:13:02;;;;;;;13.70;8.82;;;;;;;;;;5049916;28;20129;-48
2021/10/19 06:15:29;;;;;;;13.48;8.57;;;;;;;;;;5049204;28;20045;-52
2021/10/19 06:17:56;;;;;;;15.15;7.90;;;;;;;;;;5051925;28;20142;-49
2021/10/19 06:20:23;;;;;;;13.75;8.05;;;;;;;;;;5049593;28;20060;-49
2021/10/19 06:22:49;;;;;;;11.32;7.97;;;;;;;;;;5049502;28;20060;-51
2021/10/19 06:25:16;;;;;;;11.63;7.05;;;;;;;;;;5051027;28;20051;-48
2021/10/19 06:27:43;;;;;;;17.75;7.70;;;;;;;;;;5049194;28;20047;-48
2021/10/19 06:30:10;;;;;;;14.32;7.60;;;;;;;;;;5049878;28;20049;-50
2021/10/19 06:32:39;;;;;;;14.27;7.45;;;;;;;;;;5050287;28;20037;-52
2021/10/19 06:35:08;;;;;;;11.68;7.45;;;;;;;;;;5050327;28;20067;-50
2021/10/19 06:37:35;;;;;;;13.45;6.15;;;;;;;;;;5048753;28;20043;-48
2021/10/19 06:40:03;;;;;;;13.68;5.90;;;;;;;;;;5046430;28;20045;-46
2021/10/19 06:42:30;;;;;;;9.80;5.20;;;;;;;;;;5052003;28;20064;-46
2021/10/19 06:45:00;;;;;;;14.65;6.00;;;;;;;;;;5048423;28;20056;-47
2021/10/19 06:47:32;;;;;;;11.65;5.43;;;;;;;;;;5051721;28;20045;-50
2021/10/19 06:49:59;;;;;;;10.13;4.55;;;;;;;;;;5049360;28;20562;-47
2021/10/19 06:52:26;;;;;;;10.65;4.60;;;;;;;;;;5048505;28;20422;-50
2021/10/19 06:54:52;;;;;;;10.85;4.82;;;;;;;;;;5035829;28;20513;-50
2021/10/19 06:57:19;;;;;;;9.45;3.60;;;;;;;;;;5050486;28;20048;-47
2021/10/19 06:59:46;;;;;;;11.85;4.57;;;;;;;;;;5047828;28;20033;-52
2021/10/19 07:02:12;;;;;;;10.30;5.00;;;;;;;;;;5047008;28;20045;-47
2021/10/19 07:04:40;;;;;;;7.72;3.80;;;;;;;;;;5050720;28;20037;-50
2021/10/19 07:07:07;;;;;;;7.05;3.53;;;;;;;;;;5047804;28;20045;-48
2021/10/19 07:09:33;;;;;;;6.15;3.22;;;;;;;;;;5043047;28;20045;-49
2021/10/19 07:12:03;;;;;;;8.65;4.20;;;;;;;;;;5053710;28;20049;-49
2021/10/19 07:14:30;;;;;;;10.10;4.15;;;;;;;;;;5051853;28;20037;-49
2021/10/19 07:16:58;;;;;;;12.35;4.75;;;;;;;;;;5052231;28;20037;-51
2021/10/19 07:19:25;;;;;;;8.45;3.45;;;;;;;;;;5050913;28;20552;-52
2021/10/19 07:21:51;;;;;;;8.38;3.75;;;;;;;;;;5053814;28;20049;-50
2021/10/19 07:24:18;;;;;;;9.23;4.05;;;;;;;;;;5053372;28;20051;-48
2021/10/19 07:26:45;;;;;;;7.47;4.45;;;;;;;;;;5049685;28;20037;-50
2021/10/19 07:29:12;;;;;;;8.05;3.90;;;;;;;;;;5055374;28;20106;-47
2021/10/19 07:31:38;;;;;;;5.25;3.35;;;;;;;;;;5050555;28;20460;-46
2021/10/19 07:34:08;;;;;;;8.65;2.78;;;;;;;;;;5055077;28;20048;-46
2021/10/19 07:36:35;;;;;;;6.43;3.17;;;;;;;;;;5050698;28;20087;-47
2021/10/19 07:39:02;;;;;;;4.75;2.75;;;;;;;;;;5048347;28;20055;-46
2021/10/19 07:41:28;;;;;;;4.80;2.60;;;;;;;;;;5043908;28;20033;-46
2021/10/19 07:43:55;;;;;;;4.97;2.65;;;;;;;;;;5055895;28;20076;-46
2021/10/19 07:46:22;;;;;;;6.85;4.28;;;;;;;;;;5053134;28;20127;-49
2021/10/19 07:48:49;;;;;;;9.98;3.15;;;;;;;;;;5040138;28;20546;-48
2021/10/19 07:51:17;;;;;;;6.55;3.03;;;;;;;;;;5034903;28;20061;-49
2021/10/19 07:53:44;;;;;;;8.35;2.60;;;;;;;;;;5051388;28;20127;-51
2021/10/19 07:56:11;;;;;;;6.50;2.60;;;;;;;;;;5054871;28;20044;-49
2021/10/19 07:58:38;;;;;;;5.60;2.60;;;;;;;;;;5034724;28;20048;-48
2021/10/19 08:01:04;;;;;;;10.45;3.03;;;;;;;;;;5041033;28;20057;-48
2021/10/19 08:03:32;;;;;;;6.82;2.97;;;;;;;;;;5053705;28;20098;-46
2021/10/19 08:06:00;;;;;;;6.72;2.72;;;;;;;;;;5053975;28;20136;-47
2021/10/19 08:08:27;;;;;;;6.97;3.17;;;;;;;;;;5054254;28;20132;-51
2021/10/19 08:10:53;;;;;;;6.35;2.60;;;;;;;;;;5034599;28;20045;-50
2021/10/19 08:13:20;;;;;;;5.85;2.40;;;;;;;;;;5047180;28;20430;-51
2021/10/19 08:15:52;;;;;;;8.20;2.30;;;;;;;;;;5053910;28;20037;-49
2021/10/19 08:18:19;;;;;;;5.78;2.50;;;;;;;;;;5051978;28;20051;-53
2021/10/19 08:20:45;;;;;;;3.47;2.30;;;;;;;;;;5037421;28;20124;-49
2021/10/19 08:23:12;;;;;;;5.90;2.25;;;;;;;;;;5052292;28;20051;-47
2021/10/19 08:25:40;;;;;;;5.30;2.33;;;;;;;;;;5053537;28;20041;-50
2021/10/19 08:28:07;;;;;;;4.10;2.28;;;;;;;;;;5040441;28;20387;-48
2021/10/19 08:30:34;;;;;;;5.60;2.58;;;;;;;;;;5042546;28;20045;-51
2021/10/19 08:33:01;;;;;;;4.97;2.70;;;;;;;;;;5038994;28;20049;-50
2021/10/19 08:35:27;;;;;;;8.32;3.47;;;;;;;;;;5049555;28;20033;-54
2021/10/19 08:37:54;;;;;;;7.93;3.33;;;;;;;;;;5051672;28;20041;-48
2021/10/19 08:40:21;;;;;;;5.22;2.47;;;;;;;;;;5051521;28;20041;-48
2021/10/19 08:42:51;;;;;;;6.43;2.90;;;;;;;;;;5051509;28;20037;-50
2021/10/19 08:45:19;;;;;;;7.95;2.95;;;;;;;;;;5051014;28;20495;-48
2021/10/19 08:47:47;;;;;;;6.70;3.17;;;;;;;;;;5052200;28;20052;-49
2021/10/19 08:50:15;;;;;;;6.05;2.92;;;;;;;;;;5053626;28;20047;-48
2021/10/19 08:52:42;;;;;;;6.20;2.50;;;;;;;;;;5051701;28;20041;-51
2021/10/19 08:55:10;;;;;;;7.07;2.80;;;;;;;;;;5040227;28;20546;-50
2021/10/19 08:57:37;;;;;;;5.05;2.20;;;;;;;;;;5051353;28;20033;-51
2021/10/19 09:00:04;;;;;;;6.75;2.33;;;;;;;;;;5048529;28;20085;-49
2021/10/19 09:02:35;;;;;;;5.07;2.40;;;;;;;;;;5050480;28;20406;-51
2021/10/19 09:05:07;;;;;;;5.38;2.33;;;;;;;;;;5049888;28;20584;-49
2021/10/19 09:07:34;;;;;;;4.07;2.20;;;;;;;;;;5052800;28;20033;-48
2021/10/19 09:10:00;;;;;;;6.43;2.40;;;;;;;;;;5037781;28;20103;-50
2021/10/19 09:12:27;;;;;;;5.63;2.20;;;;;;;;;;5051979;28;20555;-49
2021/10/19 09:15:03;;;;;;;8.15;2.55;;;;;;;;;;5051666;28;20771;-50
2021/10/19 09:17:35;;;;;;;7.18;2.50;;;;;;;;;;5048937;28;20043;-50
2021/10/19 09:20:10;;;;;;;8.23;2.63;;;;;;;;;;5034279;28;20384;-47
2021/10/19 09:22:37;;;;;;;4.72;2.40;;;;;;;;;;5034725;28;20472;-51
2021/10/19 09:25:04;;;;;;;4.57;2.35;;;;;;;;;;5051304;28;20076;-49
2021/10/19 09:27:31;;;;;;;3.88;2.25;;;;;;;;;;5035103;28;20069;-46
2021/10/19 09:30:06;;;;;;;4.15;2.45;;;;;;;;;;5040698;28;20442;-46
2021/10/19 09:32:33;;;;;;;10.90;2.28;;;;;;;;;;5051159;28;20152;-45
2021/10/19 09:35:00;;;;;;;5.95;2.72;;;;;;;;;;5051968;28;20120;-50
2021/10/19 09:37:27;;;;;;;5.28;1.88;;;;;;;;;;5050497;28;20035;-47
2021/10/19 09:39:54;;;;;;;4.45;2.33;;;;;;;;;;5051571;28;20465;-47
2021/10/19 09:42:23;;;;;;;5.90;2.13;;;;;;;;;;5051090;28;20132;-48
2021/10/19 09:44:57;;;;;;;5.45;2.03;;;;;;;;;;5052207;28;20151;-49
2021/10/19 09:47:25;;;;;;;6.53;2.17;;;;;;;;;;5042844;28;20045;-46
2021/10/19 09:49:53;;;;;;;5.47;2.10;;;;;;;;;;5052515;28;20068;-49
2021/10/19 09:52:20;;;;;;;4.50;2.00;;;;;;;;;;5051424;28;20120;-47
2021/10/19 09:54:51;;;;;;;4.68;2.10;;;;;;;;;;5050126;28;20075;-49
2021/10/19 09:57:19;;;;;;;5.32;2.28;;;;;;;;;;5049888;28;20124;-50
2021/10/19 09:59:46;;;;;;;6.60;2.58;;;;;;;;;;5049243;28;20049;-51
2021/10/19 10:02:14;;;;;;;7.78;3.03;;;;;;;;;;5050456;28;20052;-51
2021/10/19 10:04:41;;;;;;;10.45;2.63;;;;;;;;;;5049937;28;20041;-52
2021/10/19 10:07:10;;;;;;;9.23;3.05;;;;;;;;;;5050636;28;20052;-51
2021/10/19 10:09:38;;;;;;;7.90;2.80;;;;;;;;;;5032418;28;20168;-50
2021/10/19 10:12:08;;;;;;;7.80;2.72;;;;;;;;;;5047705;28;20379;-49
2021/10/19 10:14:41;;;;;;;5.50;2.50;;;;;;;;;;5052001;28;20041;-48
2021/10/19 10:17:09;;;;;;;7.63;3.20;;;;;;;;;;5047217;28;20045;-50
2021/10/19 10:19:36;;;;;;;5.63;3.25;;;;;;;;;;5048589;28;20049;-48
2021/10/19 10:22:13;;;;;;;9.38;3.13;;;;;;;;;;5051355;28;20044;-48
2021/10/19 10:24:41;;;;;;;9.35;3.85;;;;;;;;;;5048511;28;20083;-49
2021/10/19 10:27:10;;;;;;;8.15;3.88;;;;;;;;;;5052039;28;20044;-48
2021/10/19 10:29:38;;;;;;;9.57;3.60;;;;;;;;;;5045673;28;20496;-49
2021/10/19 10:32:05;;;;;;;7.43;2.97;;;;;;;;;;5035238;28;20048;-48
2021/10/19 10:34:32;;;;;;;5.97;3.00;;;;;;;;;;5051119;28;20065;-45
2021/10/19 10:37:07;;;;;;;5.93;2.90;;;;;;;;;;5050886;28;20931;-45
2021/10/19 10:39:34;;;;;;;10.57;3.30;;;;;;;;;;5047795;28;20120;-46
2021/10/19 10:42:08;;;;;;;10.55;3.05;;;;;;;;;;5050843;28;20045;-46
2021/10/19 10:44:37;;;;;;;5.82;3.10;;;;;;;;;;5049467;28;20091;-46
2021/10/19 10:47:04;;;;;;;6.43;3.10;;;;;;;;;;5046603;28;20132;-48
2021/10/19 10:49:31;;;;;;;6.28;3.10;;;;;;;;;;5043528;28;20128;-47
2021/10/19 10:52:00;;;;;;;8.65;3.40;;;;;;;;;;5044544;28;20056;-50
2021/10/19 10:54:27;;;;;;;6.90;3.08;;;;;;;;;;5047306;28;20430;-51
2021/10/19 10:56:54;;;;;;;4.95;3.08;;;;;;;;;;5041713;28;20034;-51
2021/10/19 10:59:33;;;;;;;8.13;3.13;;;;;;;;;;5030271;28;20128;-50
2021/10/19 11:02:10;;;;;;;7.00;2.83;;;;;;;;;;5046231;28;20132;-51
2021/10/19 11:04:50;;;;;;;9.63;3.40;;;;;;;;;;5033881;28;20094;-51
2021/10/19 11:07:30;;;;;;;7.18;3.63;;;;;;;;;;5049322;28;20041;-49
2021/10/19 11:09:57;;;;;;;9.23;3.45;;;;;;;;;;5047690;28;20542;-47
2021/10/19 11:12:24;;;;;;;7.85;3.45;;;;;;;;;;5047052;28;20044;-48
2021/10/19 11:14:51;;;;;;;7.68;3.72;;;;;;;;;;5046880;28;20033;-51
2021/10/19 11:17:18;;;;;;;9.18;3.90;;;;;;;;;;5049407;28;20440;-47
2021/10/19 11:19:45;;;;;;;6.72;3.47;;;;;;;;;;5042740;28;20115;-47
2021/10/19 11:22:12;;;;;;;11.52;4.30;;;;;;;;;;5048010;28;20566;-48
2021/10/19 11:24:39;;;;;;;6.60;3.55;;;;;;;;;;5046070;28;20033;-50
2021/10/19 11:27:06;;;;;;;6.65;4.00;;;;;;;;;;5046753;28;20135;-48
2021/10/19 11:29:34;;;;;;;4.95;3.13;;;;;;;;;;5044020;28;20551;-50
2021/10/19 11:32:01;;;;;;;6.50;3.15;;;;;;;;;;5035961;28;20037;-48
2021/10/19 11:34:28;;;;;;;12.75;3.20;;;;;;;;;;5047742;28;20135;-49
2021/10/19 11:36:54;;;;;;;4.93;2.63;;;;;;;;;;5048862;28;20045;-53
2021/10/19 11:39:21;;;;;;;9.45;3.55;;;;;;;;;;5043400;28;20417;-46
2021/10/19 11:41:52;;;;;;;6.03;3.45;;;;;;;;;;5048229;28;20064;-48
2021/10/19 11:44:19;;;;;;;5.90;3.00;;;;;;;;;;5044922;28;20047;-47
2021/10/19 11:46:46;;;;;;;5.13;2.70;;;;;;;;;;5048980;28;20049;-49
2021/10/19 11:49:17;;;;;;;7.03;3.08;;;;;;;;;;5047604;28;20049;-48
2021/10/19 11:51:45;;;;;;;6.28;2.72;;;;;;;;;;5063244;28;20436;-47
2021/10/19 11:54:13;;;;;;;6.20;3.13;;;;;;;;;;5059491;28;20047;-45
2021/10/19 11:56:40;;;;;;;5.93;2.95;;;;;;;;;;5056545;28;20056;-48
2021/10/19 11:59:08;;;;;;;8.13;3.22;;;;;;;;;;5042208;28;20405;-45
2021/10/19 12:01:37;;;;;;;10.00;3.95;;;;;;;;;;5053001;28;20437;-44
2021/10/19 12:04:05;;;;;;;10.45;3.00;;;;;;;;;;5052232;28;20037;-45
2021/10/19 12:06:32;;;;;;;8.48;3.28;;;;;;;;;;5054497;28;20087;-46
2021/10/19 12:09:12;;;;;;;5.85;2.95;;;;;;;;;;5051003;28;20037;-46
2021/10/19 12:11:45;;;;;;;6.15;2.50;;;;;;;;;;5054311;28;20571;-48
2021/10/19 12:14:12;;;;;;;5.03;2.95;;;;;;;;;;5052259;28;20173;-48
2021/10/19 12:16:39;;;;;;;6.50;2.88;;;;;;;;;;5052908;28;20041;-47
2021/10/19 12:19:05;;;;;;;5.13;2.42;;;;;;;;;;5048282;28;20049;-48
2021/10/19 12:21:33;;;;;;;4.72;2.75;;;;;;;;;;5052616;28;20041;-48
2021/10/19 12:24:01;;;;;;;6.03;2.47;;;;;;;;;;5052705;28;20045;-48
2021/10/19 12:26:29;;;;;;;4.32;2.25;;;;;;;;;;5054192;28;20536;-48
2021/10/19 12:29:04;;;;;;;4.13;2.08;;;;;;;;;;5049337;28;20040;-47
2021/10/19 12:31:32;;;;;;;4.28;2.25;;;;;;;;;;5035060;28;20055;-47
2021/10/19 12:34:00;;;;;;;4.45;2.22;;;;;;;;;;5045786;28;20075;-47
2021/10/19 12:36:34;;;;;;;4.15;2.35;;;;;;;;;;5052475;28;20037;-46
2021/10/19 12:39:05;;;;;;;6.00;2.00;;;;;;;;;;5041323;22;20525;-47
2021/10/19 12:41:34;;;;;;;3.95;2.08;;;;;;;;;;5012464;28;20030;-45
2021/10/19 12:44:02;;;;;;;4.57;2.40;;;;;;;;;;5011819;28;20164;-47
2021/10/19 12:46:29;;;;;;;6.00;2.33;;;;;;;;;;5013087;28;20072;-45
2021/10/19 12:49:02;;;;;;;4.75;2.58;;;;;;;;;;4997795;28;20140;-45
2021/10/19 12:51:29;;;;;;;4.88;2.35;;;;;;;;;;5010191;28;20038;-47
2021/10/19 12:53:55;;;;;;;6.10;2.25;;;;;;;;;;5010590;28;20050;-47
2021/10/19 12:56:24;;;;;;;7.68;2.10;;;;;;;;;;5012138;28;20048;-46
2021/10/19 12:58:51;;;;;;;4.55;2.50;;;;;;;;;;5010207;28;20181;-46
2021/10/19 13:01:18;;;;;;;9.90;7.50;;;;;;;;;;5009014;28;20048;-48
2021/10/19 13:03:45;;;;;;;20.67;17.45;;;;;;;;;;5010007;28;20483;-47
2021/10/19 13:06:16;;;;;;;9.07;4.45;;;;;;;;;;5012888;28;20073;-48
2021/10/19 13:08:43;;;;;;;6.25;2.50;;;;;;;;;;5007154;28;20066;-50
2021/10/19 13:11:10;;;;;;;4.40;2.30;;;;;;;;;;5011344;28;20042;-49
2021/10/19 13:13:37;;;;;;;6.20;2.80;;;;;;;;;;5011462;28;20053;-46
2021/10/19 13:16:04;;;;;;;5.10;3.15;;;;;;;;;;5013070;28;20053;-48
2021/10/19 13:18:33;;;;;;;4.78;2.90;;;;;;;;;;5004642;28;20046;-46
2021/10/19 13:21:00;;;;;;;4.05;2.50;;;;;;;;;;5010963;28;20483;-48
2021/10/19 13:23:28;;;;;;;4.95;2.78;;;;;;;;;;5004648;28;20050;-48
2021/10/19 13:25:56;;;;;;;6.75;2.60;;;;;;;;;;5011707;28;20056;-47
2021/10/19 13:28:23;;;;;;;4.55;2.45;;;;;;;;;;5011790;28;20052;-48
2021/10/19 13:30:50;;;;;;;4.97;2.83;;;;;;;;;;4999805;28;20467;-46
2021/10/19 13:33:17;;;;;;;5.10;3.17;;;;;;;;;;5009803;28;20050;-45
2021/10/19 13:35:44;;;;;;;6.10;2.80;;;;;;;;;;5010901;28;20053;-46
2021/10/19 13:38:11;;;;;;;5.40;2.70;;;;;;;;;;5006860;28;20060;-48
2021/10/19 13:40:39;;;;;;;6.20;3.05;;;;;;;;;;4993451;28;20125;-47
2021/10/19 13:43:06;;;;;;;10.45;2.95;;;;;;;;;;5009822;28;20137;-51
2021/10/19 13:45:33;;;;;;;6.82;2.92;;;;;;;;;;5010813;28;20045;-49
2021/10/19 13:48:00;;;;;;;4.50;2.50;;;;;;;;;;5010231;28;20069;-45
2021/10/19 13:50:27;;;;;;;5.75;2.60;;;;;;;;;;5012063;28;20117;-48
2021/10/19 13:52:54;;;;;;;5.47;2.90;;;;;;;;;;5012497;28;20038;-50
2021/10/19 13:55:20;;;;;;;5.60;2.40;;;;;;;;;;5010020;28;20042;-47
2021/10/19 13:57:47;;;;;;;4.82;2.60;;;;;;;;;;5009868;28;20411;-45
2021/10/19 14:00:15;;;;;;;5.50;2.75;;;;;;;;;;5002995;28;20042;-49
2021/10/19 14:02:42;;;;;;;8.82;3.97;;;;;;;;;;5011342;28;20482;-49
2021/10/19 14:05:09;;;;;;;5.28;2.70;;;;;;;;;;5009654;28;20526;-46
2021/10/19 14:07:36;;;;;;;7.22;3.33;;;;;;;;;;5010986;28;20434;-47
2021/10/19 14:10:04;;;;;;;6.32;4.22;;;;;;;;;;4995269;28;20046;-46
2021/10/19 14:12:31;;;;;;;14.90;11.38;;;;;;;;;;5000936;28;20045;-47
2021/10/19 14:14:58;;;;;;;4.18;2.70;;;;;;;;;;5009506;28;20129;-46
2021/10/19 14:17:26;;;;;;;6.15;3.30;;;;;;;;;;5005005;28;20048;-46
2021/10/19 14:19:53;;;;;;;6.78;2.80;;;;;;;;;;5010775;28;20503;-48
2021/10/19 14:22:20;;;;;;;4.95;2.83;;;;;;;;;;5011129;28;20042;-47
2021/10/19 14:24:47;;;;;;;4.03;2.72;;;;;;;;;;5006212;28;20045;-51
2021/10/19 14:27:14;;;;;;;5.93;3.38;;;;;;;;;;5007744;28;20084;-49
2021/10/19 14:29:41;;;;;;;8.77;2.75;;;;;;;;;;5006174;28;20152;-49
2021/10/19 14:32:08;;;;;;;6.55;3.20;;;;;;;;;;5009819;28;20052;-47
2021/10/19 14:34:35;;;;;;;6.50;2.90;;;;;;;;;;5010997;28;20042;-50
2021/10/19 14:37:02;;;;;;;5.65;2.65;;;;;;;;;;5009896;28;20042;-47